Time;durP1;ratioP1;P1;durP2;ratioP2;P2;SDS_P1;SDS_P2;PMS_P1;PMS_P2;Temp;Humidity;BMP_temperature;BMP_pressure;BME280_temperature;BME280_humidity;BME280_pressure;Samples;Min_cycle;Max_cycle;Signal;HPM_P1;HPM_P2
2022/10/31 00:00:07;;;;;;;53.83;30.98;;;;;;;;;;5051536;28;20366;-77
2022/10/31 00:02:32;;;;;;;61.33;31.60;;;;;;;;;;5051046;28;20392;-76
2022/10/31 00:04:58;;;;;;;56.65;30.88;;;;;;;;;;5051497;28;20138;-76
2022/10/31 00:07:23;;;;;;;59.47;30.80;;;;;;;;;;5033254;28;20043;-77
2022/10/31 00:09:49;;;;;;;61.33;31.35;;;;;;;;;;5050060;28;20500;-77
2022/10/31 00:12:14;;;;;;;63.13;31.85;;;;;;;;;;5033273;28;20029;-77
2022/10/31 00:14:40;;;;;;;60.45;31.67;;;;;;;;;;5033127;28;20087;-78
2022/10/31 00:17:05;;;;;;;57.38;32.45;;;;;;;;;;5051505;28;20033;-77
2022/10/31 00:19:31;;;;;;;57.25;30.23;;;;;;;;;;5051087;28;20029;-78
2022/10/31 00:21:56;;;;;;;63.35;30.85;;;;;;;;;;5029167;28;20049;-78
2022/10/31 00:24:22;;;;;;;52.58;29.92;;;;;;;;;;5031122;28;20029;-77
2022/10/31 00:26:48;;;;;;;56.65;31.73;;;;;;;;;;5012455;28;20032;-77
2022/10/31 00:29:14;;;;;;;63.78;29.95;;;;;;;;;;5009863;28;20117;-76
2022/10/31 00:31:39;;;;;;;56.80;31.20;;;;;;;;;;5011271;28;20105;-78
2022/10/31 00:34:05;;;;;;;57.83;30.08;;;;;;;;;;5011744;28;20030;-77
2022/10/31 00:36:30;;;;;;;60.33;31.05;;;;;;;;;;5012089;28;20034;-76
2022/10/31 00:38:58;;;;;;;60.25;31.08;;;;;;;;;;5013636;28;20567;-76
2022/10/31 00:41:23;;;;;;;59.28;32.38;;;;;;;;;;5015895;28;20113;-78
2022/10/31 00:43:49;;;;;;;60.95;32.88;;;;;;;;;;5015537;28;20069;-77
2022/10/31 00:46:14;;;;;;;63.88;33.35;;;;;;;;;;5015462;28;20038;-77
2022/10/31 00:48:40;;;;;;;62.45;32.85;;;;;;;;;;5015252;28;20489;-77
2022/10/31 00:51:06;;;;;;;60.88;33.15;;;;;;;;;;5013286;28;20084;-77
2022/10/31 00:53:31;;;;;;;66.43;33.10;;;;;;;;;;5015220;28;20038;-78
2022/10/31 00:55:57;;;;;;;65.32;33.72;;;;;;;;;;5015249;28;20026;-78
2022/10/31 00:58:22;;;;;;;66.40;35.25;;;;;;;;;;5013449;28;20052;-78
2022/10/31 01:00:54;;;;;;;68.00;33.17;;;;;;;;;;5013789;28;20022;-77
2022/10/31 01:03:24;;;;;;;;;;;;;;;;;;5014217;28;20026;-78
2022/10/31 01:06:18;;;;;;;62.70;31.98;;;;;;;;;;5013107;28;20266;-77
2022/10/31 01:08:47;;;;;;;66.53;32.40;;;;;;;;;;5005764;28;20550;-77
2022/10/31 01:11:16;;;;;;;65.13;30.95;;;;;;;;;;5015279;28;20033;-77
2022/10/31 01:13:42;;;;;;;58.47;30.15;;;;;;;;;;5013405;28;20026;-77
2022/10/31 01:16:11;;;;;;;63.97;29.85;;;;;;;;;;5013152;28;20036;-77
2022/10/31 01:18:36;;;;;;;59.88;30.15;;;;;;;;;;5012753;28;20057;-78
2022/10/31 01:21:08;;;;;;;59.58;28.60;;;;;;;;;;5014886;28;20033;-78
2022/10/31 01:23:34;;;;;;;57.60;26.67;;;;;;;;;;5032714;28;20053;-77
2022/10/31 01:26:10;;;;;;;60.35;28.33;;;;;;;;;;5026987;28;20025;-77
2022/10/31 01:28:37;;;;;;;57.20;28.88;;;;;;;;;;5037020;28;20123;-77
2022/10/31 01:31:06;;;;;;;54.85;28.92;;;;;;;;;;5054703;28;20496;-77
2022/10/31 01:33:32;;;;;;;60.97;27.58;;;;;;;;;;5035726;28;20021;-77
2022/10/31 01:35:57;;;;;;;55.50;26.95;;;;;;;;;;5036991;28;20108;-77
2022/10/31 01:38:23;;;;;;;48.58;27.63;;;;;;;;;;5035719;28;20033;-78
2022/10/31 01:40:49;;;;;;;60.03;28.70;;;;;;;;;;5053952;28;20029;-77
2022/10/31 01:43:15;;;;;;;50.42;26.90;;;;;;;;;;5035529;28;20023;-77
2022/10/31 01:45:43;;;;;;;57.35;29.08;;;;;;;;;;5053711;28;20100;-78
2022/10/31 01:48:15;;;;;;;54.13;28.02;;;;;;;;;;5036104;28;20067;-78
2022/10/31 01:50:41;;;;;;;;;;;;;;;;;;5053611;28;20390;-76
2022/10/31 01:53:10;;;;;;;75.07;26.90;;;;;;;;;;5034846;28;19908;-78
2022/10/31 01:55:40;;;;;;;67.88;27.75;;;;;;;;;;5053086;28;20476;-77
2022/10/31 01:58:13;;;;;;;53.13;27.17;;;;;;;;;;5053893;28;20017;-77
2022/10/31 02:00:40;;;;;;;63.13;28.63;;;;;;;;;;5035960;28;20021;-77
2022/10/31 02:03:05;;;;;;;58.65;28.08;;;;;;;;;;5053787;28;20110;-77
2022/10/31 02:05:32;;;;;;;58.05;28.95;;;;;;;;;;5053395;28;20062;-77
2022/10/31 02:08:10;;;;;;;52.47;27.17;;;;;;;;;;5035425;28;20020;-76
2022/10/31 02:10:37;;;;;;;56.15;27.05;;;;;;;;;;5036003;28;20021;-76
2022/10/31 02:13:05;;;;;;;54.78;26.13;;;;;;;;;;5035431;28;20035;-77
2022/10/31 02:15:32;;;;;;;57.35;29.70;;;;;;;;;;5053790;28;20017;-77
2022/10/31 02:17:58;;;;;;;60.85;28.58;;;;;;;;;;5053279;28;20025;-77
2022/10/31 02:20:27;;;;;;;55.42;28.40;;;;;;;;;;5053999;28;20036;-76
2022/10/31 02:22:58;;;;;;;62.47;29.02;;;;;;;;;;5053117;28;20045;-78
2022/10/31 02:25:35;;;;;;;60.72;30.05;;;;;;;;;;5053198;28;20025;-76
2022/10/31 02:28:36;;;;;;;60.13;30.58;;;;;;;;;;5034980;28;20029;-78
2022/10/31 02:31:20;;;;;;;59.28;27.63;;;;;;;;;;4992554;28;20339;-76
2022/10/31 02:34:19;;;;;;;71.90;29.00;;;;;;;;;;5052153;28;20116;-77
2022/10/31 02:36:58;;;;;;;61.83;30.48;;;;;;;;;;4983296;28;20039;-77
2022/10/31 02:39:34;;;;;;;72.40;30.83;;;;;;;;;;5052353;28;20472;-77
2022/10/31 02:42:09;;;;;;;55.17;28.67;;;;;;;;;;5052509;28;20099;-77
2022/10/31 02:44:59;;;;;;;63.85;29.52;;;;;;;;;;5052440;28;20032;-76
2022/10/31 02:47:29;;;;;;;68.68;29.42;;;;;;;;;;5052032;28;20052;-76
2022/10/31 02:50:21;;;;;;;70.57;32.60;;;;;;;;;;5017714;28;20033;-78
2022/10/31 02:52:51;;;;;;;76.00;31.65;;;;;;;;;;5031113;28;20496;-76
2022/10/31 02:55:26;;;;;;;60.95;29.83;;;;;;;;;;5052223;28;20048;-77
2022/10/31 02:57:59;;;;;;;61.67;29.55;;;;;;;;;;5034209;28;20029;-76
2022/10/31 03:00:25;;;;;;;55.00;30.02;;;;;;;;;;5052134;28;20021;-77
2022/10/31 03:03:00;;;;;;;52.50;27.77;;;;;;;;;;5033286;28;20071;-76
2022/10/31 03:05:57;;;;;;;63.03;29.17;;;;;;;;;;5034448;28;20029;-77
2022/10/31 03:08:35;;;;;;;57.83;28.65;;;;;;;;;;5034650;28;20032;-76
2022/10/31 03:11:03;;;;;;;48.42;27.42;;;;;;;;;;5052395;28;20035;-78
2022/10/31 03:13:37;;;;;;;72.72;29.88;;;;;;;;;;5051642;28;20036;-77
2022/10/31 03:16:25;;;;;;;60.95;31.52;;;;;;;;;;5033938;28;20043;-77
2022/10/31 03:18:56;;;;;;;77.18;32.25;;;;;;;;;;5052124;28;20021;-78
2022/10/31 03:21:29;;;;;;;62.47;32.30;;;;;;;;;;5052443;28;20087;-78
2022/10/31 03:23:56;;;;;;;56.83;28.30;;;;;;;;;;5037845;28;20048;-75
2022/10/31 03:26:23;;;;;;;59.60;30.35;;;;;;;;;;5045958;28;20028;-77
2022/10/31 03:29:02;;;;;;;57.97;29.63;;;;;;;;;;5031607;28;20021;-76
2022/10/31 03:31:35;;;;;;;59.72;29.50;;;;;;;;;;5013923;28;20021;-77
2022/10/31 03:34:02;;;;;;;59.42;32.70;;;;;;;;;;5013849;28;20021;-77
2022/10/31 03:36:31;;;;;;;61.13;30.60;;;;;;;;;;5032795;28;20102;-76
2022/10/31 03:38:59;;;;;;;60.80;29.55;;;;;;;;;;5014865;28;20057;-76
2022/10/31 03:41:31;;;;;;;70.90;31.85;;;;;;;;;;5014786;28;20398;-77
2022/10/31 03:44:14;;;;;;;49.88;27.13;;;;;;;;;;5014473;28;20041;-77
2022/10/31 03:46:41;;;;;;;49.33;26.85;;;;;;;;;;5032200;28;20025;-76
2022/10/31 03:49:07;;;;;;;59.95;27.08;;;;;;;;;;5032096;28;20492;-75
2022/10/31 03:51:58;;;;;;;82.10;28.15;;;;;;;;;;5032323;28;20021;-77
2022/10/31 03:54:33;;;;;;;55.30;26.08;;;;;;;;;;5006096;28;20034;-77
2022/10/31 03:57:21;;;;;;;42.42;22.35;;;;;;;;;;5014051;28;20122;-77
2022/10/31 04:00:08;;;;;;;40.13;22.83;;;;;;;;;;5013482;28;20151;-77
2022/10/31 04:02:38;;;;;;;40.05;23.80;;;;;;;;;;5014611;28;20033;-77
2022/10/31 04:05:05;;;;;;;55.75;26.63;;;;;;;;;;5014139;28;20032;-76
2022/10/31 04:07:36;;;;;;;50.25;25.30;;;;;;;;;;5013776;28;20111;-75
2022/10/31 04:10:06;;;;;;;53.53;26.55;;;;;;;;;;5032370;28;20025;-78
2022/10/31 04:12:33;;;;;;;44.97;24.10;;;;;;;;;;4998290;28;20040;-78
2022/10/31 04:14:59;;;;;;;47.90;25.65;;;;;;;;;;5031645;28;20036;-77
2022/10/31 04:17:29;;;;;;;54.28;26.73;;;;;;;;;;5014133;28;20099;-76
2022/10/31 04:19:54;;;;;;;45.92;24.65;;;;;;;;;;5031655;28;20126;-77
2022/10/31 04:22:20;;;;;;;53.90;24.65;;;;;;;;;;5013645;28;20076;-78
2022/10/31 04:24:45;;;;;;;43.65;24.00;;;;;;;;;;5013839;28;20112;-77
2022/10/31 04:27:11;;;;;;;44.33;23.00;;;;;;;;;;5031997;28;20029;-76
2022/10/31 04:29:36;;;;;;;46.83;24.95;;;;;;;;;;5013726;28;20036;-77
2022/10/31 04:32:02;;;;;;;38.75;22.60;;;;;;;;;;5014135;28;20025;-77
2022/10/31 04:34:27;;;;;;;45.05;22.13;;;;;;;;;;5031946;28;20033;-76
2022/10/31 04:36:53;;;;;;;51.42;21.95;;;;;;;;;;5031717;28;20033;-76
2022/10/31 04:39:18;;;;;;;40.63;21.13;;;;;;;;;;5013384;28;20021;-76
2022/10/31 04:41:44;;;;;;;41.67;23.50;;;;;;;;;;5032371;28;20037;-77
2022/10/31 04:44:09;;;;;;;38.85;21.45;;;;;;;;;;5014021;28;20086;-76
2022/10/31 04:46:35;;;;;;;39.10;21.17;;;;;;;;;;5013305;28;20033;-77
2022/10/31 04:49:00;;;;;;;45.13;21.50;;;;;;;;;;5013405;28;20048;-76
2022/10/31 04:51:26;;;;;;;51.08;22.98;;;;;;;;;;5031920;28;20026;-75
2022/10/31 04:53:51;;;;;;;42.53;21.95;;;;;;;;;;5013290;28;20032;-77
2022/10/31 04:56:17;;;;;;;45.55;20.77;;;;;;;;;;5014148;28;20120;-76
2022/10/31 04:58:42;;;;;;;70.07;22.63;;;;;;;;;;5013740;28;20025;-77
2022/10/31 05:01:08;;;;;;;40.75;20.23;;;;;;;;;;5013582;28;20465;-78
2022/10/31 05:03:33;;;;;;;50.58;22.05;;;;;;;;;;5013851;28;20111;-78
2022/10/31 05:05:59;;;;;;;39.65;22.70;;;;;;;;;;5013585;28;20029;-78
2022/10/31 05:08:24;;;;;;;48.70;25.15;;;;;;;;;;5031495;28;20033;-77
2022/10/31 05:10:50;;;;;;;40.33;23.02;;;;;;;;;;5031083;28;20036;-77
2022/10/31 05:13:16;;;;;;;36.08;20.42;;;;;;;;;;5013053;28;20036;-77
2022/10/31 05:15:41;;;;;;;37.08;19.73;;;;;;;;;;5013981;28;20037;-77
2022/10/31 05:18:07;;;;;;;34.55;20.02;;;;;;;;;;5013547;28;20033;-77
2022/10/31 05:20:33;;;;;;;39.95;20.83;;;;;;;;;;5013538;28;20057;-78
2022/10/31 05:22:59;;;;;;;30.75;18.58;;;;;;;;;;5031747;28;20050;-76
2022/10/31 05:25:27;;;;;;;38.25;20.05;;;;;;;;;;5034064;28;20034;-77
2022/10/31 05:27:53;;;;;;;33.88;18.75;;;;;;;;;;5035387;28;20036;-79
2022/10/31 05:30:22;;;;;;;35.58;18.70;;;;;;;;;;5034766;28;20116;-77
2022/10/31 05:32:49;;;;;;;34.53;17.58;;;;;;;;;;5017488;28;20449;-78
2022/10/31 05:35:30;;;;;;;32.80;18.52;;;;;;;;;;5017270;28;20068;-78
2022/10/31 05:37:57;;;;;;;39.67;19.35;;;;;;;;;;5017678;28;20036;-76
2022/10/31 05:40:23;;;;;;;35.72;18.35;;;;;;;;;;5017704;28;20040;-77
2022/10/31 05:42:52;;;;;;;34.83;18.80;;;;;;;;;;5035187;28;20029;-77
2022/10/31 05:45:19;;;;;;;34.22;18.60;;;;;;;;;;5017479;28;20033;-78
2022/10/31 05:47:55;;;;;;;44.72;19.80;;;;;;;;;;5034975;28;20405;-77
2022/10/31 05:50:22;;;;;;;31.48;19.98;;;;;;;;;;5016653;28;20029;-78
2022/10/31 05:52:47;;;;;;;39.90;19.10;;;;;;;;;;5035001;28;20096;-77
2022/10/31 05:55:13;;;;;;;37.45;20.02;;;;;;;;;;5016989;28;20538;-79
2022/10/31 05:57:38;;;;;;;36.08;19.77;;;;;;;;;;5016994;28;20116;-75
2022/10/31 06:00:05;;;;;;;46.00;18.77;;;;;;;;;;5035174;28;20420;-77
2022/10/31 06:02:34;;;;;;;33.60;18.05;;;;;;;;;;5034629;28;20029;-76
2022/10/31 06:05:00;;;;;;;38.15;18.30;;;;;;;;;;5034084;28;20116;-76
2022/10/31 06:07:26;;;;;;;39.92;18.70;;;;;;;;;;5023503;28;20031;-78
2022/10/31 06:09:52;;;;;;;37.83;18.38;;;;;;;;;;5035561;28;20025;-79
2022/10/31 06:12:17;;;;;;;32.17;17.60;;;;;;;;;;5043719;28;20037;-77
2022/10/31 06:14:42;;;;;;;35.28;17.63;;;;;;;;;;5040773;28;20025;-77
2022/10/31 06:17:08;;;;;;;29.25;16.30;;;;;;;;;;5033109;28;20028;-77
2022/10/31 06:19:33;;;;;;;28.65;16.60;;;;;;;;;;5035979;28;20029;-78
2022/10/31 06:22:00;;;;;;;27.40;15.85;;;;;;;;;;5024983;28;20416;-75
2022/10/31 06:24:26;;;;;;;29.33;14.73;;;;;;;;;;5029607;28;20074;-78
2022/10/31 06:26:52;;;;;;;28.25;16.27;;;;;;;;;;5051007;28;20103;-76
2022/10/31 06:29:17;;;;;;;26.60;15.75;;;;;;;;;;5039515;28;20039;-75
2022/10/31 06:31:43;;;;;;;28.67;16.00;;;;;;;;;;5026481;28;20036;-76
2022/10/31 06:34:09;;;;;;;36.13;15.55;;;;;;;;;;5025778;28;20427;-76
2022/10/31 06:36:34;;;;;;;27.65;15.55;;;;;;;;;;5032416;28;20040;-78
2022/10/31 06:39:00;;;;;;;28.65;16.92;;;;;;;;;;5030409;28;20111;-78
2022/10/31 06:41:26;;;;;;;26.95;15.68;;;;;;;;;;5051933;28;21016;-78
2022/10/31 06:43:51;;;;;;;31.80;15.98;;;;;;;;;;5024818;28;20124;-78
2022/10/31 06:46:17;;;;;;;35.55;16.80;;;;;;;;;;5034662;28;20162;-78
2022/10/31 06:48:42;;;;;;;30.85;16.30;;;;;;;;;;5043345;28;20039;-78
2022/10/31 06:51:08;;;;;;;28.15;15.02;;;;;;;;;;5018402;28;20380;-78
2022/10/31 06:53:33;;;;;;;23.05;14.68;;;;;;;;;;5037402;28;20024;-79
2022/10/31 06:56:01;;;;;;;29.05;15.50;;;;;;;;;;5042085;28;20025;-76
2022/10/31 06:58:26;;;;;;;26.83;15.07;;;;;;;;;;5050141;28;20063;-77
2022/10/31 07:00:52;;;;;;;32.17;19.17;;;;;;;;;;5043237;28;20434;-80
2022/10/31 07:03:17;;;;;;;23.63;14.60;;;;;;;;;;5024383;28;20025;-77
2022/10/31 07:05:44;;;;;;;25.52;15.07;;;;;;;;;;5045824;28;20060;-77
2022/10/31 07:08:13;;;;;;;22.38;13.70;;;;;;;;;;5051238;28;20056;-77
2022/10/31 07:10:41;;;;;;;23.80;14.05;;;;;;;;;;5017725;28;20058;-78
2022/10/31 07:13:11;;;;;;;22.98;14.68;;;;;;;;;;5041586;28;20021;-78
2022/10/31 07:15:37;;;;;;;26.33;13.65;;;;;;;;;;5044570;28;20044;-78
2022/10/31 07:18:06;;;;;;;21.98;13.95;;;;;;;;;;5043826;28;20253;-78
2022/10/31 07:20:31;;;;;;;27.42;14.15;;;;;;;;;;5023459;28;20029;-78
2022/10/31 07:22:57;;;;;;;27.50;16.20;;;;;;;;;;5007467;28;20065;-78
2022/10/31 07:25:24;;;;;;;31.55;14.20;;;;;;;;;;5023586;28;20033;-77
2022/10/31 07:27:50;;;;;;;25.33;14.32;;;;;;;;;;5027542;28;20487;-78
2022/10/31 07:30:19;;;;;;;29.67;14.98;;;;;;;;;;5030845;28;20492;-79
2022/10/31 07:32:49;;;;;;;28.10;15.57;;;;;;;;;;5026610;28;20516;-78
2022/10/31 07:35:19;;;;;;;25.00;14.60;;;;;;;;;;5031787;28;20045;-78
2022/10/31 07:37:44;;;;;;;26.65;15.48;;;;;;;;;;5028547;28;20054;-85
2022/10/31 07:40:12;;;;;;;26.65;14.20;;;;;;;;;;5025245;28;20486;-76
2022/10/31 07:42:43;;;;;;;25.63;13.45;;;;;;;;;;5016962;28;20075;-79
2022/10/31 07:45:12;;;;;;;25.85;14.07;;;;;;;;;;5022696;28;20041;-79
2022/10/31 07:47:42;;;;;;;33.95;15.63;;;;;;;;;;5019108;28;20536;-76
2022/10/31 07:50:10;;;;;;;27.25;15.65;;;;;;;;;;5020318;28;20039;-77
2022/10/31 07:52:36;;;;;;;27.75;15.27;;;;;;;;;;5015007;28;20033;-79
2022/10/31 07:55:02;;;;;;;24.23;13.95;;;;;;;;;;5018468;28;20089;-79
2022/10/31 07:57:28;;;;;;;28.88;14.85;;;;;;;;;;5019323;28;20109;-78
2022/10/31 07:59:53;;;;;;;27.98;14.82;;;;;;;;;;5022033;28;20155;-76
2022/10/31 08:02:19;;;;;;;37.13;17.05;;;;;;;;;;5018042;28;20065;-79
2022/10/31 08:04:44;;;;;;;26.55;16.38;;;;;;;;;;5017249;28;20072;-76
2022/10/31 08:07:10;;;;;;;28.48;15.13;;;;;;;;;;5018730;28;20568;-78
2022/10/31 08:09:35;;;;;;;28.88;15.65;;;;;;;;;;5018490;28;20393;-77
2022/10/31 08:12:01;;;;;;;29.33;15.10;;;;;;;;;;5016156;28;20037;-78
2022/10/31 08:14:27;;;;;;;29.00;15.15;;;;;;;;;;5016465;28;20485;-76
2022/10/31 08:16:53;;;;;;;26.92;16.00;;;;;;;;;;5017904;28;20037;-77
2022/10/31 08:19:19;;;;;;;33.40;15.05;;;;;;;;;;5019787;28;20473;-76
2022/10/31 08:21:44;;;;;;;24.20;15.43;;;;;;;;;;5020110;28;20059;-78
2022/10/31 08:24:10;;;;;;;26.30;16.23;;;;;;;;;;5036637;28;20041;-75
2022/10/31 08:26:36;;;;;;;29.52;15.32;;;;;;;;;;5040902;28;20037;-79
2022/10/31 08:29:01;;;;;;;28.48;15.80;;;;;;;;;;5022804;28;20224;-78
2022/10/31 08:31:28;;;;;;;26.17;14.98;;;;;;;;;;5037275;28;20038;-76
2022/10/31 08:33:54;;;;;;;29.58;16.27;;;;;;;;;;5038303;28;20032;-78
2022/10/31 08:36:20;;;;;;;26.83;15.43;;;;;;;;;;5020326;28;20034;-78
2022/10/31 08:38:49;;;;;;;31.25;16.45;;;;;;;;;;5021333;28;20033;-78
2022/10/31 08:41:15;;;;;;;29.67;15.30;;;;;;;;;;5006189;28;20041;-78
2022/10/31 08:43:40;;;;;;;27.33;14.82;;;;;;;;;;5039243;28;20174;-77
2022/10/31 08:46:06;;;;;;;34.78;19.58;;;;;;;;;;5015188;28;20375;-76
2022/10/31 08:48:33;;;;;;;29.88;16.52;;;;;;;;;;5036376;28;20033;-77
2022/10/31 08:50:59;;;;;;;27.45;15.85;;;;;;;;;;5037574;28;20028;-78
2022/10/31 08:53:25;;;;;;;34.60;17.83;;;;;;;;;;5020290;28;20397;-78
2022/10/31 08:55:51;;;;;;;31.90;17.05;;;;;;;;;;5019572;28;20032;-75
2022/10/31 08:58:18;;;;;;;33.53;16.45;;;;;;;;;;5019611;28;20037;-77
2022/10/31 09:00:46;;;;;;;32.80;16.77;;;;;;;;;;5024264;28;20542;-76
2022/10/31 09:03:16;;;;;;;28.48;16.73;;;;;;;;;;5002010;28;20044;-79
2022/10/31 09:05:42;;;;;;;33.08;17.67;;;;;;;;;;5039671;28;20056;-77
2022/10/31 09:08:08;;;;;;;30.85;16.45;;;;;;;;;;5021955;28;20067;-76
2022/10/31 09:10:35;;;;;;;35.30;18.27;;;;;;;;;;5043698;28;20037;-76
2022/10/31 09:13:13;;;;;;;29.45;17.05;;;;;;;;;;5020952;28;20048;-76
2022/10/31 09:15:40;;;;;;;35.05;18.23;;;;;;;;;;5022727;28;20025;-76
2022/10/31 09:18:07;;;;;;;33.50;18.63;;;;;;;;;;5039924;28;20462;-78
2022/10/31 09:20:37;;;;;;;40.22;21.92;;;;;;;;;;5042766;28;20032;-80
2022/10/31 09:23:07;;;;;;;29.20;17.88;;;;;;;;;;5038439;28;20065;-77
2022/10/31 09:25:34;;;;;;;37.25;19.13;;;;;;;;;;5025484;28;20045;-78
2022/10/31 09:28:02;;;;;;;33.50;18.13;;;;;;;;;;5041758;28;20037;-77
2022/10/31 09:30:29;;;;;;;36.15;18.10;;;;;;;;;;5044892;28;20029;-76
2022/10/31 09:33:00;;;;;;;31.92;18.33;;;;;;;;;;5020463;28;20033;-76
2022/10/31 09:35:26;;;;;;;31.63;18.83;;;;;;;;;;5047744;28;20044;-78
2022/10/31 09:37:56;;;;;;;206.80;94.78;;;;;;;;;;5043327;28;20037;-77
2022/10/31 09:40:29;;;;;;;32.97;18.33;;;;;;;;;;5025927;28;20044;-77
2022/10/31 09:43:27;;;;;;;31.75;20.67;;;;;;;;;;5042482;28;20037;-76
2022/10/31 09:45:55;;;;;;;34.88;20.05;;;;;;;;;;5020816;28;20051;-76
2022/10/31 09:48:50;;;;;;;33.30;22.25;;;;;;;;;;5040066;28;20029;-77
2022/10/31 09:51:30;;;;;;;36.25;18.17;;;;;;;;;;5008258;28;20334;-79
2022/10/31 09:54:02;;;;;;;35.97;20.02;;;;;;;;;;5020071;28;20037;-78
2022/10/31 09:56:31;;;;;;;43.58;25.00;;;;;;;;;;5043641;28;20029;-77
2022/10/31 09:59:01;;;;;;;43.25;23.27;;;;;;;;;;5021764;28;20044;-79
2022/10/31 10:01:47;;;;;;;50.10;23.80;;;;;;;;;;5024296;28;20036;-79
2022/10/31 10:04:35;;;;;;;41.58;23.90;;;;;;;;;;5035512;28;20032;-78
2022/10/31 10:07:08;;;;;;;52.03;24.17;;;;;;;;;;5023685;28;20055;-78
2022/10/31 10:09:33;;;;;;;55.38;26.00;;;;;;;;;;5023778;28;20112;-79
2022/10/31 10:12:14;;;;;;;46.47;27.02;;;;;;;;;;5041526;28;20104;-77
2022/10/31 10:14:43;;;;;;;48.92;25.15;;;;;;;;;;5040491;28;20405;-77
2022/10/31 10:17:18;;;;;;;53.45;32.25;;;;;;;;;;5041174;28;20032;-76
2022/10/31 10:19:56;;;;;;;47.90;26.25;;;;;;;;;;5025062;28;20115;-78
2022/10/31 10:22:31;;;;;;;45.58;25.02;;;;;;;;;;5015138;28;20060;-79
2022/10/31 10:25:18;;;;;;;46.30;27.70;;;;;;;;;;5024912;28;20141;-76
2022/10/31 10:27:53;;;;;;;57.08;29.75;;;;;;;;;;5021755;28;20033;-78
2022/10/31 10:30:22;;;;;;;50.10;27.48;;;;;;;;;;5022187;28;20389;-78
2022/10/31 10:32:56;;;;;;;55.70;29.88;;;;;;;;;;5021361;28;20037;-78
2022/10/31 10:35:42;;;;;;;52.28;27.75;;;;;;;;;;5020366;28;20036;-78
2022/10/31 10:38:29;;;;;;;53.92;29.00;;;;;;;;;;5019969;28;20029;-78
2022/10/31 10:40:59;;;;;;;52.22;28.95;;;;;;;;;;5022380;28;20692;-79
2022/10/31 10:43:38;;;;;;;53.00;28.98;;;;;;;;;;5022713;28;20102;-79
2022/10/31 10:49:32;;;;;;;53.67;27.98;;;;;;;;;;5019747;28;20036;-78
2022/10/31 10:52:01;;;;;;;51.85;28.63;;;;;;;;;;5019495;28;20505;-77
2022/10/31 10:54:45;;;;;;;46.58;28.00;;;;;;;;;;5022147;28;20077;-79
2022/10/31 10:57:28;;;;;;;48.75;26.77;;;;;;;;;;5018810;28;20045;-79
2022/10/31 10:59:54;;;;;;;53.08;28.70;;;;;;;;;;5017807;28;20410;-79
2022/10/31 11:02:25;;;;;;;43.38;26.45;;;;;;;;;;5017289;28;20122;-77
2022/10/31 11:04:52;;;;;;;;;;;;;;;;;;5027918;28;20033;-79
2022/10/31 11:07:18;;;;;;;54.55;29.38;;;;;;;;;;5026706;28;19921;-78
2022/10/31 11:09:44;;;;;;;53.03;27.15;;;;;;;;;;5023172;28;20362;-78
2022/10/31 11:12:31;;;;;;;54.40;28.42;;;;;;;;;;5017677;28;20033;-76
2022/10/31 11:15:29;;;;;;;58.78;28.75;;;;;;;;;;5021434;28;20052;-78
2022/10/31 11:17:55;;;;;;;54.97;29.75;;;;;;;;;;5022986;28;20087;-80
2022/10/31 11:20:35;;;;;;;49.95;29.20;;;;;;;;;;5030381;28;20066;-81
2022/10/31 11:23:25;;;;;;;57.97;31.33;;;;;;;;;;5020968;28;20449;-78
2022/10/31 11:25:52;;;;;;;61.88;31.70;;;;;;;;;;5008366;28;20041;-79
2022/10/31 11:28:18;;;;;;;61.55;32.70;;;;;;;;;;5021519;28;20038;-77
2022/10/31 11:31:05;;;;;;;53.78;30.13;;;;;;;;;;5030110;28;20083;-77
2022/10/31 11:33:53;;;;;;;53.78;30.38;;;;;;;;;;5022681;28;20025;-78
2022/10/31 11:36:34;;;;;;;54.92;29.75;;;;;;;;;;5026287;28;20325;-79
2022/10/31 11:39:02;;;;;;;55.17;29.02;;;;;;;;;;5035889;28;20026;-79
2022/10/31 11:41:38;;;;;;;58.00;29.08;;;;;;;;;;5024630;28;20025;-79
2022/10/31 11:44:33;;;;;;;54.90;29.77;;;;;;;;;;5022634;28;20038;-78
2022/10/31 11:47:02;;;;;;;58.28;30.98;;;;;;;;;;5006336;28;20038;-79
2022/10/31 11:49:40;;;;;;;58.83;30.05;;;;;;;;;;5008824;28;20021;-80
2022/10/31 11:52:14;;;;;;;57.28;29.33;;;;;;;;;;5022469;28;20085;-82
2022/10/31 11:55:11;;;;;;;57.45;29.77;;;;;;;;;;5037779;28;20025;-81
2022/10/31 11:57:52;;;;;;;64.68;30.52;;;;;;;;;;5027657;28;20163;-81
2022/10/31 12:00:30;;;;;;;47.85;28.73;;;;;;;;;;5029297;28;20179;-81
2022/10/31 12:03:24;;;;;;;53.97;29.50;;;;;;;;;;5020224;28;20505;-78
2022/10/31 12:06:01;;;;;;;48.05;27.42;;;;;;;;;;5025033;28;20037;-87
2022/10/31 12:08:32;;;;;;;56.08;30.00;;;;;;;;;;5018339;28;20057;-78
2022/10/31 12:11:31;;;;;;;52.40;28.55;;;;;;;;;;5035646;28;20091;-78
2022/10/31 12:14:08;;;;;;;51.25;29.10;;;;;;;;;;5021601;28;20503;-75
2022/10/31 12:16:39;;;;;;;51.28;29.75;;;;;;;;;;5023063;28;20076;-78
2022/10/31 12:19:15;;;;;;;54.25;27.27;;;;;;;;;;5018617;28;20026;-78
2022/10/31 12:21:59;;;;;;;52.40;27.00;;;;;;;;;;5016064;28;20040;-77
2022/10/31 12:24:52;;;;;;;53.50;28.15;;;;;;;;;;5002803;28;20237;-78
2022/10/31 12:28:03;;;;;;;54.95;28.52;;;;;;;;;;5001893;28;20586;-78
2022/10/31 12:31:06;;;;;;;50.70;28.77;;;;;;;;;;4990073;28;20060;-79
2022/10/31 12:34:11;;;;;;;49.67;27.88;;;;;;;;;;5009322;28;20041;-78
2022/10/31 12:37:11;;;;;;;49.60;26.35;;;;;;;;;;5005985;28;20160;-76
2022/10/31 12:39:44;;;;;;;47.08;26.88;;;;;;;;;;5014007;28;20030;-77
2022/10/31 12:42:20;;;;;;;52.15;27.08;;;;;;;;;;4999589;28;20042;-79
2022/10/31 12:45:13;;;;;;;47.67;26.90;;;;;;;;;;5005989;28;20132;-76
2022/10/31 12:48:12;;;;;;;50.58;27.02;;;;;;;;;;4999460;28;20041;-79
2022/10/31 12:50:57;;;;;;;59.55;28.08;;;;;;;;;;5004972;28;20120;-78
2022/10/31 12:53:41;;;;;;;59.03;33.78;;;;;;;;;;5001718;28;20440;-78
2022/10/31 12:56:21;;;;;;;48.53;27.92;;;;;;;;;;5007002;28;20383;-79
2022/10/31 12:59:01;;;;;;;49.92;28.25;;;;;;;;;;5001688;28;20113;-76
2022/10/31 13:01:30;;;;;;;48.50;26.35;;;;;;;;;;5005854;28;20038;-76
2022/10/31 13:04:22;;;;;;;54.90;27.23;;;;;;;;;;5004263;28;21274;-80
2022/10/31 13:06:53;;;;;;;46.92;26.90;;;;;;;;;;5015381;28;20109;-79
2022/10/31 13:09:35;;;;;;;59.53;27.67;;;;;;;;;;5002654;28;20033;-80
2022/10/31 13:12:08;;;;;;;47.30;27.25;;;;;;;;;;5002466;28;20049;-80
2022/10/31 13:14:42;;;;;;;48.03;27.75;;;;;;;;;;5007598;28;20119;-81
2022/10/31 13:17:35;;;;;;;53.65;28.38;;;;;;;;;;5003736;28;20026;-79
2022/10/31 13:20:38;;;;;;;44.90;25.20;;;;;;;;;;5004442;28;20057;-78
2022/10/31 13:23:32;;;;;;;56.05;29.67;;;;;;;;;;5019724;28;20696;-80
2022/10/31 13:26:13;;;;;;;45.20;26.33;;;;;;;;;;5045697;28;20032;-79
2022/10/31 13:28:52;;;;;;;45.67;25.80;;;;;;;;;;5027865;28;20028;-79
2022/10/31 13:31:21;;;;;;;51.65;26.20;;;;;;;;;;5027458;28;20302;-80
2022/10/31 13:34:01;;;;;;;49.50;26.27;;;;;;;;;;5044151;28;20036;-81
2022/10/31 13:36:47;;;;;;;43.33;24.38;;;;;;;;;;5044556;28;20045;-79
2022/10/31 13:39:43;;;;;;;49.50;27.38;;;;;;;;;;5023740;28;20029;-81
2022/10/31 13:42:09;;;;;;;54.72;26.48;;;;;;;;;;5026381;28;20025;-81
2022/10/31 13:44:39;;;;;;;46.40;25.73;;;;;;;;;;5040772;28;20267;-81
2022/10/31 13:47:40;;;;;;;46.38;24.08;;;;;;;;;;5025997;28;20568;-81
2022/10/31 13:50:23;;;;;;;50.30;24.92;;;;;;;;;;5002886;28;20040;-82
2022/10/31 13:52:48;;;;;;;49.25;24.95;;;;;;;;;;5029416;28;20107;-81
2022/10/31 13:55:44;;;;;;;48.92;26.40;;;;;;;;;;5047388;28;20066;-80
2022/10/31 13:58:28;;;;;;;41.13;23.10;;;;;;;;;;5024638;28;20065;-81
2022/10/31 14:01:28;;;;;;;49.60;24.60;;;;;;;;;;5029825;28;20056;-84
2022/10/31 14:07:23;;;;;;;49.30;22.35;;;;;;;;;;4926282;29;20642;-80
2022/10/31 14:10:21;;;;;;;46.67;24.30;;;;;;;;;;5006307;28;20041;-84
2022/10/31 14:12:47;;;;;;;40.85;23.52;;;;;;;;;;5041967;28;20033;-81
2022/10/31 14:15:15;;;;;;;46.30;25.95;;;;;;;;;;5026609;28;20108;-81
2022/10/31 14:18:06;;;;;;;44.58;25.05;;;;;;;;;;5010985;28;20026;-81
2022/10/31 14:20:43;;;;;;;41.17;23.08;;;;;;;;;;5040410;28;20056;-80
2022/10/31 14:23:28;;;;;;;45.80;23.75;;;;;;;;;;5044338;28;20524;-80
2022/10/31 14:25:54;;;;;;;43.30;23.08;;;;;;;;;;5050603;28;20477;-84
2022/10/31 14:28:34;;;;;;;45.40;23.13;;;;;;;;;;5056889;28;20033;-84
2022/10/31 14:31:00;;;;;;;43.60;24.45;;;;;;;;;;5058719;28;20040;-84
2022/10/31 14:33:30;;;;;;;38.58;23.98;;;;;;;;;;5040167;28;20029;-81
2022/10/31 14:36:09;;;;;;;46.63;23.30;;;;;;;;;;5033506;28;20043;-79
2022/10/31 14:38:48;;;;;;;44.03;23.52;;;;;;;;;;5030266;28;20055;-81
2022/10/31 14:41:30;;;;;;;43.30;22.40;;;;;;;;;;5049374;28;20028;-79
2022/10/31 14:44:23;;;;;;;40.70;23.08;;;;;;;;;;5053470;28;20104;-79
2022/10/31 14:47:19;;;;;;;46.00;23.73;;;;;;;;;;5034611;28;20029;-81
2022/10/31 14:49:57;;;;;;;55.80;25.38;;;;;;;;;;5027219;28;20019;-80
2022/10/31 14:52:23;;;;;;;43.03;23.65;;;;;;;;;;5044689;28;20091;-81
2022/10/31 14:54:56;;;;;;;48.72;24.63;;;;;;;;;;5042496;28;20020;-84